createdAt,value
2019-02-18T00:00:08.649Z,6.90
2019-02-18T00:01:08.712Z,6.90
2019-02-18T00:02:10.552Z,6.90
2019-02-18T00:03:08.649Z,6.90
2019-02-18T00:04:08.722Z,6.90
2019-02-18T00:05:08.709Z,6.00
2019-02-18T00:06:08.707Z,6.00
2019-02-18T00:07:14.406Z,6.00
2019-02-18T00:08:08.714Z,6.00
2019-02-18T00:09:08.687Z,6.00
2019-02-18T00:10:08.602Z,6.00
2019-02-18T00:11:08.623Z,6.00
2019-02-18T00:12:08.587Z,6.00
2019-02-18T00:13:08.627Z,6.00
2019-02-18T00:14:08.657Z,6.00
2019-02-18T00:15:08.749Z,5.90
2019-02-18T00:16:08.683Z,5.90
2019-02-18T00:17:08.752Z,5.90
2019-02-18T00:18:08.742Z,5.90
2019-02-18T00:19:08.704Z,5.90
2019-02-18T00:20:08.684Z,5.90
2019-02-18T00:21:08.751Z,5.90
2019-02-18T00:22:08.742Z,5.90
2019-02-18T00:23:08.686Z,5.90
2019-02-18T00:24:08.737Z,5.90
2019-02-18T00:25:08.665Z,7.50
2019-02-18T00:26:08.729Z,7.50
2019-02-18T00:27:08.668Z,7.50
2019-02-18T00:28:08.736Z,7.50
2019-02-18T00:29:08.676Z,7.50
2019-02-18T00:30:08.731Z,7.50
2019-02-18T00:31:08.670Z,7.50
2019-02-18T00:32:08.745Z,7.50
2019-02-18T00:33:08.671Z,7.50
2019-02-18T00:34:08.738Z,7.50
2019-02-18T00:35:08.747Z,6.99
2019-02-18T00:36:08.753Z,6.99
2019-02-18T00:37:08.664Z,6.99
2019-02-18T00:38:08.772Z,6.99
2019-02-18T00:39:08.763Z,6.99
2019-02-18T00:40:08.678Z,6.99
2019-02-18T00:41:08.680Z,6.99
2019-02-18T00:42:08.701Z,6.99
2019-02-18T00:43:08.754Z,6.99
2019-02-18T00:44:08.759Z,6.99
2019-02-18T00:45:08.748Z,6.30
2019-02-18T00:46:08.688Z,6.30
2019-02-18T00:47:08.745Z,6.30
2019-02-18T00:48:08.747Z,6.30
2019-02-18T00:49:08.694Z,6.30
2019-02-18T00:50:08.693Z,6.30
2019-02-18T00:51:08.760Z,6.30
2019-02-18T00:52:08.685Z,6.30
2019-02-18T00:53:08.751Z,6.30
2019-02-18T00:54:08.686Z,6.30
2019-02-18T00:55:08.694Z,6.30
2019-02-18T00:56:08.706Z,6.30
2019-02-18T00:57:08.767Z,6.30
2019-02-18T00:58:08.709Z,6.30
2019-02-18T00:59:08.710Z,6.30
2019-02-18T01:00:08.716Z,6.30
2019-02-18T01:01:08.772Z,6.30
2019-02-18T01:02:08.725Z,6.30
2019-02-18T01:03:08.715Z,6.30
2019-02-18T01:04:08.773Z,6.30
2019-02-18T01:05:08.686Z,7.20
2019-02-18T01:06:08.758Z,7.20
2019-02-18T01:07:08.764Z,7.20
2019-02-18T01:09:08.760Z,7.20
2019-02-18T01:10:08.690Z,7.20
2019-02-18T01:11:08.763Z,7.20
2019-02-18T01:12:08.825Z,7.20
2019-02-18T01:13:08.713Z,7.20
2019-02-18T01:14:08.764Z,7.20
2019-02-18T01:15:08.751Z,5.60
2019-02-18T01:16:08.751Z,5.60
2019-02-18T01:17:08.764Z,5.60
2019-02-18T01:18:08.721Z,5.60
2019-02-18T01:19:08.716Z,5.60
2019-02-18T01:20:08.715Z,5.60
2019-02-18T01:21:08.766Z,5.60
2019-02-18T01:22:08.753Z,5.60
2019-02-18T01:23:08.712Z,5.60
2019-02-18T01:24:08.674Z,5.60
2019-02-18T01:25:08.720Z,5.80
2019-02-18T01:26:08.771Z,5.80
2019-02-18T01:27:08.721Z,5.80
2019-02-18T01:28:08.682Z,5.80
2019-02-18T01:29:08.682Z,5.80
2019-02-18T01:30:08.679Z,5.80
2019-02-18T01:31:08.708Z,5.80
2019-02-18T01:32:08.704Z,5.80
2019-02-18T01:33:08.791Z,5.80
2019-02-18T01:34:08.769Z,5.80
2019-02-18T01:35:08.665Z,6.40
2019-02-18T01:36:08.694Z,6.40
2019-02-18T01:37:08.687Z,6.40
2019-02-18T01:38:08.738Z,6.40
2019-02-18T01:39:08.785Z,6.40
2019-02-18T01:40:08.708Z,6.40
2019-02-18T01:41:08.717Z,6.40
2019-02-18T01:42:08.709Z,6.40
2019-02-18T01:43:08.717Z,6.40
2019-02-18T01:44:08.751Z,6.40
2019-02-18T01:45:08.701Z,4.90
2019-02-18T01:46:08.778Z,4.90
2019-02-18T01:47:08.779Z,4.90
2019-02-18T01:48:08.687Z,4.90
2019-02-18T01:49:08.696Z,4.90
2019-02-18T01:50:08.780Z,4.90
2019-02-18T01:51:08.787Z,4.90
2019-02-18T01:52:08.743Z,4.90
2019-02-18T01:53:08.779Z,4.90
2019-02-18T01:54:08.721Z,4.90
2019-02-18T01:55:08.764Z,6.20
2019-02-18T01:56:08.799Z,6.20
2019-02-18T01:57:08.764Z,6.20
2019-02-18T01:58:08.833Z,6.20
2019-02-18T01:59:08.774Z,6.20
2019-02-18T02:00:08.753Z,6.20
2019-02-18T02:01:08.769Z,6.20
2019-02-18T02:02:08.800Z,6.20
2019-02-18T02:03:08.830Z,6.20
2019-02-18T02:04:08.828Z,6.20
2019-02-18T02:05:08.765Z,4.50
2019-02-18T02:06:08.701Z,4.50
2019-02-18T02:07:08.816Z,4.50
2019-02-18T02:08:08.818Z,4.50
2019-02-18T02:09:08.763Z,4.50
2019-02-18T02:10:08.828Z,4.50
2019-02-18T02:11:08.829Z,4.50
2019-02-18T02:12:08.778Z,4.50
2019-02-18T02:13:08.819Z,4.50
2019-02-18T02:14:08.887Z,4.50
2019-02-18T02:15:08.768Z,4.80
2019-02-18T02:16:08.804Z,4.80
2019-02-18T02:17:08.834Z,4.80
2019-02-18T02:18:08.716Z,4.80
2019-02-18T02:19:08.788Z,4.80
2019-02-18T02:20:08.832Z,4.80
2019-02-18T02:21:08.829Z,4.80
2019-02-18T02:22:08.841Z,4.80
2019-02-18T02:23:08.850Z,4.80
2019-02-18T02:24:08.812Z,4.80
2019-02-18T02:25:08.820Z,4.80
2019-02-18T02:26:08.815Z,4.80
2019-02-18T02:27:08.816Z,4.80
2019-02-18T02:28:08.750Z,4.80
2019-02-18T02:29:08.821Z,4.80
2019-02-18T02:30:08.763Z,4.80
2019-02-18T02:31:08.824Z,4.80
2019-02-18T02:32:08.749Z,4.80
2019-02-18T02:33:08.836Z,4.80
2019-02-18T02:34:08.761Z,4.80
2019-02-18T02:35:08.822Z,5.00
2019-02-18T02:36:08.776Z,5.00
2019-02-18T02:37:08.783Z,5.00
2019-02-18T02:38:08.810Z,5.00
2019-02-18T02:39:08.812Z,5.00
2019-02-18T02:40:08.815Z,5.00
2019-02-18T02:41:08.860Z,5.00
2019-02-18T02:42:08.823Z,5.00
2019-02-18T02:43:08.835Z,5.00
2019-02-18T02:44:08.826Z,5.00
2019-02-18T02:45:08.651Z,5.00
2019-02-18T02:46:08.651Z,5.00
2019-02-18T02:47:08.806Z,5.00
2019-02-18T02:48:08.759Z,5.00
2019-02-18T02:49:08.706Z,5.00
2019-02-18T02:50:08.779Z,5.00
2019-02-18T02:51:08.663Z,5.00
2019-02-18T02:52:08.735Z,5.00
2019-02-18T02:53:08.707Z,5.00
2019-02-18T02:54:08.652Z,5.00
2019-02-18T02:55:08.848Z,4.80
2019-02-18T02:56:08.878Z,4.80
2019-02-18T02:57:08.858Z,4.80
2019-02-18T02:58:08.859Z,4.80
2019-02-18T02:59:08.810Z,4.80
2019-02-18T03:00:08.803Z,4.80
2019-02-18T03:01:08.871Z,4.80
2019-02-18T03:02:08.736Z,4.80
2019-02-18T03:03:08.746Z,4.80
2019-02-18T03:04:08.816Z,4.80
2019-02-18T03:05:08.779Z,4.50
2019-02-18T03:06:08.846Z,4.50
2019-02-18T03:07:08.867Z,4.50
2019-02-18T03:08:20.047Z,4.50
2019-02-18T03:09:08.846Z,4.50
2019-02-18T03:10:08.774Z,4.50
2019-02-18T03:11:08.778Z,4.50
2019-02-18T03:12:08.846Z,4.50
2019-02-18T03:13:08.797Z,4.50
2019-02-18T03:14:08.780Z,4.50
2019-02-18T03:15:08.883Z,4.80
2019-02-18T03:16:08.892Z,4.80
2019-02-18T03:17:08.824Z,4.80
2019-02-18T03:18:08.894Z,4.80
2019-02-18T03:19:08.829Z,4.80
2019-02-18T03:20:08.826Z,4.80
2019-02-18T03:21:08.839Z,4.80
2019-02-18T03:22:08.931Z,4.80
2019-02-18T03:23:08.760Z,4.80
2019-02-18T03:24:08.854Z,4.80
2019-02-18T03:25:08.815Z,4.90
2019-02-18T03:26:08.775Z,4.90
2019-02-18T03:27:08.796Z,4.90
2019-02-18T03:28:08.840Z,4.90
2019-02-18T03:29:08.873Z,4.90
2019-02-18T03:30:08.915Z,4.90
2019-02-18T03:31:08.820Z,4.90
2019-02-18T03:32:08.869Z,4.90
2019-02-18T03:33:08.816Z,4.90
2019-02-18T03:34:08.842Z,4.90
2019-02-18T03:35:08.807Z,6.00
2019-02-18T03:36:08.801Z,6.00
2019-02-18T03:37:08.853Z,6.00
2019-02-18T03:38:08.782Z,6.00
2019-02-18T03:39:08.935Z,6.00
2019-02-18T03:40:08.800Z,6.00
2019-02-18T03:41:08.748Z,6.00
2019-02-18T03:42:08.796Z,6.00
2019-02-18T03:43:08.761Z,6.00
2019-02-18T03:44:08.857Z,6.00
2019-02-18T03:45:08.833Z,4.30
2019-02-18T03:46:08.832Z,4.30
2019-02-18T03:47:08.827Z,4.30
2019-02-18T03:48:08.808Z,4.30
2019-02-18T03:49:08.922Z,4.30
2019-02-18T03:50:08.875Z,4.30
2019-02-18T03:51:08.781Z,4.30
2019-02-18T03:52:08.777Z,4.30
2019-02-18T03:53:08.917Z,4.30
2019-02-18T03:54:08.774Z,4.30
2019-02-18T03:55:08.788Z,5.99
2019-02-18T03:56:08.898Z,5.99
2019-02-18T03:57:08.818Z,5.99
2019-02-18T03:58:08.839Z,5.99
2019-02-18T03:59:08.859Z,5.99
2019-02-18T04:00:08.859Z,5.99
2019-02-18T04:01:08.869Z,5.99
2019-02-18T04:02:08.897Z,5.99
2019-02-18T04:03:08.904Z,5.99
2019-02-18T04:04:08.913Z,5.99
2019-02-18T04:05:08.787Z,4.50
2019-02-18T04:06:08.854Z,4.50
2019-02-18T04:07:08.910Z,4.50
2019-02-18T04:08:08.786Z,4.50
2019-02-18T04:09:08.867Z,4.50
2019-02-18T04:10:08.788Z,4.50
2019-02-18T04:11:08.891Z,4.50
2019-02-18T04:12:08.799Z,4.50
2019-02-18T04:13:08.892Z,4.50
2019-02-18T04:14:08.932Z,4.50
2019-02-18T04:15:08.890Z,5.10
2019-02-18T04:16:08.884Z,5.10
2019-02-18T04:17:08.830Z,5.10
2019-02-18T04:18:08.894Z,5.10
2019-02-18T04:19:08.905Z,5.10
2019-02-18T04:20:08.831Z,5.10
2019-02-18T04:21:08.915Z,5.10
2019-02-18T04:22:08.836Z,5.10
2019-02-18T04:23:08.901Z,5.10
2019-02-18T04:24:08.904Z,5.10
2019-02-18T04:25:08.862Z,5.50
2019-02-18T04:26:08.939Z,5.50
2019-02-18T04:27:08.938Z,5.50
2019-02-18T04:28:08.920Z,5.50
2019-02-18T04:29:08.804Z,5.50
2019-02-18T04:30:08.886Z,5.50
2019-02-18T04:31:08.862Z,5.50
2019-02-18T04:32:08.828Z,5.50
2019-02-18T04:33:08.939Z,5.50
2019-02-18T04:34:08.871Z,5.50
2019-02-18T04:35:08.786Z,4.80
2019-02-18T04:36:08.892Z,4.80
2019-02-18T04:37:08.909Z,4.80
2019-02-18T04:38:08.853Z,4.80
2019-02-18T04:39:08.908Z,4.80
2019-02-18T04:40:08.795Z,4.80
2019-02-18T04:41:08.819Z,4.80
2019-02-18T04:42:08.831Z,4.80
2019-02-18T04:43:08.900Z,4.80
2019-02-18T04:44:08.851Z,4.80
2019-02-18T04:45:08.875Z,4.40
2019-02-18T04:46:08.913Z,4.40
2019-02-18T04:47:08.954Z,4.40
2019-02-18T04:48:08.933Z,4.40
2019-02-18T04:49:09.005Z,4.40
2019-02-18T04:50:08.913Z,4.40
2019-02-18T04:51:08.945Z,4.40
2019-02-18T04:52:08.884Z,4.40
2019-02-18T04:53:08.874Z,4.40
2019-02-18T04:54:08.906Z,4.40
2019-02-18T04:55:08.941Z,4.40
2019-02-18T04:56:08.945Z,4.90
2019-02-18T04:57:08.965Z,4.90
2019-02-18T04:58:08.904Z,4.90
2019-02-18T04:59:08.883Z,4.90
2019-02-18T05:00:08.914Z,4.90
2019-02-18T05:01:08.969Z,4.90
2019-02-18T05:02:08.893Z,4.90
2019-02-18T05:03:08.940Z,4.90
2019-02-18T05:04:08.943Z,4.90
2019-02-18T05:05:08.980Z,4.90
2019-02-18T05:06:08.929Z,5.10
2019-02-18T05:07:08.927Z,5.10
2019-02-18T05:08:08.858Z,5.10
2019-02-18T05:09:08.866Z,5.10
2019-02-18T05:10:08.884Z,5.10
2019-02-18T05:11:08.931Z,5.10
2019-02-18T05:12:08.933Z,5.10
2019-02-18T05:13:08.935Z,5.10
2019-02-18T05:14:08.934Z,5.10
2019-02-18T05:15:08.861Z,5.10
2019-02-18T05:16:09.011Z,6.00
2019-02-18T05:17:08.879Z,6.00
2019-02-18T05:18:08.934Z,6.00
2019-02-18T05:19:08.871Z,6.00
2019-02-18T05:20:08.814Z,6.00
2019-02-18T05:21:08.883Z,6.00
2019-02-18T05:22:08.960Z,6.00
2019-02-18T05:23:08.908Z,6.00
2019-02-18T05:24:08.927Z,6.00
2019-02-18T05:25:08.930Z,6.00
2019-02-18T05:26:08.902Z,5.50
2019-02-18T05:27:08.942Z,5.50
2019-02-18T05:28:08.979Z,5.50
2019-02-18T05:29:08.881Z,5.50
2019-02-18T05:30:08.928Z,5.50
2019-02-18T05:31:08.948Z,5.50
2019-02-18T05:32:08.918Z,5.50
2019-02-18T05:33:08.975Z,5.50
2019-02-18T05:34:08.848Z,5.50
2019-02-18T05:35:08.851Z,5.50
2019-02-18T05:36:08.908Z,5.70
2019-02-18T05:37:08.985Z,5.70
2019-02-18T05:38:08.922Z,5.70
2019-02-18T05:39:17.431Z,5.70
2019-02-18T05:40:08.992Z,5.70
2019-02-18T05:41:08.929Z,5.70
2019-02-18T05:42:08.862Z,5.70
2019-02-18T05:43:08.959Z,5.70
2019-02-18T05:44:09.001Z,5.70
2019-02-18T05:45:08.955Z,5.70
2019-02-18T05:46:08.960Z,5.70
2019-02-18T05:47:08.959Z,5.70
2019-02-18T05:48:08.924Z,5.70
2019-02-18T05:49:08.872Z,5.70
2019-02-18T05:50:08.843Z,5.70
2019-02-18T05:51:08.960Z,5.70
2019-02-18T05:52:08.958Z,5.70
2019-02-18T05:53:08.961Z,5.70
2019-02-18T05:54:08.955Z,5.70
2019-02-18T05:55:08.910Z,5.70
2019-02-18T05:56:08.917Z,5.99
2019-02-18T05:57:08.904Z,5.99
2019-02-18T05:58:08.981Z,5.99
2019-02-18T05:59:08.983Z,5.99
2019-02-18T06:00:08.979Z,5.99
2019-02-18T06:01:08.935Z,5.99
2019-02-18T06:02:08.928Z,5.99
2019-02-18T06:03:08.986Z,5.99
2019-02-18T06:04:08.910Z,5.99
2019-02-18T06:05:08.879Z,5.99
2019-02-18T06:06:08.919Z,5.20
2019-02-18T06:07:08.907Z,5.20
2019-02-18T06:08:08.973Z,5.20
2019-02-18T06:09:08.988Z,5.20
2019-02-18T06:10:08.910Z,5.20
2019-02-18T06:11:08.920Z,5.20
2019-02-18T06:12:08.910Z,5.20
2019-02-18T06:13:08.976Z,5.20
2019-02-18T06:14:08.918Z,5.20
2019-02-18T06:15:08.918Z,5.20
2019-02-18T06:16:08.976Z,5.20
2019-02-18T06:17:08.885Z,5.20
2019-02-18T06:18:09.015Z,5.20
2019-02-18T06:19:08.984Z,5.20
2019-02-18T06:20:08.981Z,5.20
2019-02-18T06:21:08.957Z,5.20
2019-02-18T06:22:08.981Z,5.20
2019-02-18T06:23:09.007Z,5.20
2019-02-18T06:24:08.943Z,5.20
2019-02-18T06:25:08.953Z,5.20
2019-02-18T06:26:08.966Z,5.20
2019-02-18T06:27:08.948Z,5.20
2019-02-18T06:28:08.896Z,5.20
2019-02-18T06:29:08.930Z,5.20
2019-02-18T06:30:08.894Z,5.20
2019-02-18T06:31:08.979Z,5.20
2019-02-18T06:32:08.896Z,5.20
2019-02-18T06:33:08.965Z,5.20
2019-02-18T06:34:09.021Z,5.20
2019-02-18T06:35:08.902Z,5.20
2019-02-18T06:36:09.022Z,5.90
2019-02-18T06:37:09.004Z,5.90
2019-02-18T06:38:09.005Z,5.90
2019-02-18T06:39:08.948Z,5.90
2019-02-18T06:40:09.022Z,5.90
2019-02-18T06:41:09.024Z,5.90
2019-02-18T06:42:11.136Z,5.90
2019-02-18T06:43:09.009Z,5.90
2019-02-18T06:44:09.039Z,5.90
2019-02-18T06:45:08.946Z,5.90
2019-02-18T06:46:09.014Z,6.30
2019-02-18T06:47:08.908Z,6.30
2019-02-18T06:48:08.937Z,6.30
2019-02-18T06:49:08.954Z,6.30
2019-02-18T06:50:09.010Z,6.30
2019-02-18T06:51:08.939Z,6.30
2019-02-18T06:52:09.080Z,6.30
2019-02-18T06:53:08.942Z,6.30
2019-02-18T06:54:09.022Z,6.30
2019-02-18T06:55:08.942Z,6.30
2019-02-18T06:56:08.907Z,5.50
2019-02-18T06:57:08.995Z,5.50
2019-02-18T06:58:08.880Z,5.50
2019-02-18T06:59:08.927Z,5.50
2019-02-18T07:00:08.907Z,5.50
2019-02-18T07:01:09.006Z,5.50
2019-02-18T07:02:08.912Z,5.50
2019-02-18T07:03:08.917Z,5.50
2019-02-18T07:04:09.005Z,5.50
2019-02-18T07:05:08.961Z,5.50
2019-02-18T07:06:08.918Z,5.80
2019-02-18T07:07:09.051Z,5.80
2019-02-18T07:08:09.039Z,5.80
2019-02-18T07:09:08.952Z,5.80
2019-02-18T07:10:08.964Z,5.80
2019-02-18T07:11:08.907Z,5.80
2019-02-18T07:12:08.960Z,5.80
2019-02-18T07:13:08.898Z,5.80
2019-02-18T07:14:09.006Z,5.80
2019-02-18T07:15:08.940Z,5.80
2019-02-18T07:16:09.018Z,6.10
2019-02-18T07:17:10.441Z,6.10
2019-02-18T07:18:09.024Z,6.10
2019-02-18T07:19:08.947Z,6.10
2019-02-18T07:20:09.023Z,6.10
2019-02-18T07:21:08.946Z,6.10
2019-02-18T07:22:08.947Z,6.10
2019-02-18T07:23:08.957Z,6.10
2019-02-18T07:24:08.950Z,6.10
2019-02-18T07:25:09.023Z,6.10
2019-02-18T07:26:08.957Z,7.00
2019-02-18T07:27:09.026Z,7.00
2019-02-18T07:28:08.958Z,7.00
2019-02-18T07:29:09.055Z,7.00
2019-02-18T07:30:09.029Z,7.00
2019-02-18T07:31:08.938Z,7.00
2019-02-18T07:32:09.033Z,7.00
2019-02-18T07:33:09.039Z,7.00
2019-02-18T07:34:08.979Z,7.00
2019-02-18T07:35:09.035Z,7.00
2019-02-18T07:36:08.982Z,9.30
2019-02-18T07:37:09.037Z,9.30
2019-02-18T07:38:08.968Z,9.30
2019-02-18T07:39:08.970Z,9.30
2019-02-18T07:40:09.038Z,9.30
2019-02-18T07:41:08.973Z,9.30
2019-02-18T07:42:08.968Z,9.30
2019-02-18T07:43:09.044Z,9.30
2019-02-18T07:44:08.975Z,9.30
2019-02-18T07:45:08.968Z,9.30
2019-02-18T07:46:09.102Z,8.30
2019-02-18T07:47:09.050Z,8.30
2019-02-18T07:48:09.063Z,8.30
2019-02-18T07:49:09.082Z,8.30
2019-02-18T07:50:08.982Z,8.30
2019-02-18T07:51:08.995Z,8.30
2019-02-18T07:52:09.053Z,8.30
2019-02-18T07:53:09.001Z,8.30
2019-02-18T07:54:10.325Z,8.30
2019-02-18T07:55:08.981Z,8.30
2019-02-18T07:56:09.062Z,9.40
2019-02-18T07:57:09.024Z,9.40
2019-02-18T07:58:09.004Z,9.40
2019-02-18T07:59:09.054Z,9.40
2019-02-18T08:00:08.982Z,9.40
2019-02-18T08:01:09.057Z,9.40
2019-02-18T08:02:08.980Z,9.40
2019-02-18T08:03:09.049Z,9.40
2019-02-18T08:04:09.050Z,9.40
2019-02-18T08:05:08.984Z,9.40
2019-02-18T08:06:08.990Z,8.40
2019-02-18T08:07:09.065Z,8.40
2019-02-18T08:08:08.994Z,8.40
2019-02-18T08:09:09.015Z,8.40
2019-02-18T08:10:12.075Z,8.40
2019-02-18T08:11:08.990Z,8.40
2019-02-18T08:12:08.996Z,8.40
2019-02-18T08:13:09.077Z,8.40
2019-02-18T08:14:09.081Z,8.40
2019-02-18T08:15:08.965Z,8.40
2019-02-18T08:16:08.971Z,7.60
2019-02-18T08:17:08.936Z,7.60
2019-02-18T08:18:08.993Z,7.60
2019-02-18T08:19:08.944Z,7.60
2019-02-18T08:20:08.992Z,7.60
2019-02-18T08:21:08.996Z,7.60
2019-02-18T08:22:09.053Z,7.60
2019-02-18T08:23:08.987Z,7.60
2019-02-18T08:24:09.065Z,7.60
2019-02-18T08:25:08.957Z,7.60
2019-02-18T08:26:09.062Z,8.70
2019-02-18T08:27:09.019Z,8.70
2019-02-18T08:28:09.107Z,8.70
2019-02-18T08:29:09.037Z,8.70
2019-02-18T08:30:09.091Z,8.70
2019-02-18T08:31:09.069Z,8.70
2019-02-18T08:32:10.785Z,8.70
2019-02-18T08:33:09.149Z,8.70
2019-02-18T08:34:09.086Z,8.70
2019-02-18T08:35:09.024Z,8.70
2019-02-18T08:36:08.928Z,10.00
2019-02-18T08:37:08.965Z,10.00
2019-02-18T08:38:08.967Z,10.00
2019-02-18T08:39:09.052Z,10.00
2019-02-18T08:40:09.023Z,10.00
2019-02-18T08:41:09.025Z,10.00
2019-02-18T08:42:09.027Z,10.00
2019-02-18T08:43:09.026Z,10.00
2019-02-18T08:44:08.966Z,10.00
2019-02-18T08:45:09.024Z,10.00
2019-02-18T08:46:09.100Z,12.80
2019-02-18T08:48:09.119Z,12.80
2019-02-18T08:49:09.100Z,12.80
2019-02-18T08:50:09.051Z,12.80
2019-02-18T08:51:09.041Z,12.80
2019-02-18T08:52:09.113Z,12.80
2019-02-18T08:53:09.116Z,12.80
2019-02-18T08:54:09.059Z,12.80
2019-02-18T08:55:09.042Z,12.80
2019-02-18T08:56:09.014Z,10.70
2019-02-18T08:57:09.088Z,10.70
2019-02-18T08:58:09.019Z,10.70
2019-02-18T08:59:11.015Z,10.70
2019-02-18T09:00:09.034Z,10.70
2019-02-18T09:01:09.017Z,10.70
2019-02-18T09:02:09.095Z,10.70
2019-02-18T09:03:09.031Z,10.70
2019-02-18T09:04:09.016Z,10.70
2019-02-18T09:05:09.124Z,10.70
2019-02-18T09:06:09.018Z,12.60
2019-02-18T09:07:08.959Z,12.60
2019-02-18T09:08:08.981Z,12.60
2019-02-18T09:09:09.076Z,12.60
2019-02-18T09:10:09.037Z,12.60
2019-02-18T09:11:09.058Z,12.60
2019-02-18T09:12:08.958Z,12.60
2019-02-18T09:13:09.072Z,12.60
2019-02-18T09:14:08.967Z,12.60
2019-02-18T09:15:09.028Z,12.60
2019-02-18T09:16:09.311Z,12.20
2019-02-18T09:17:08.988Z,12.20
2019-02-18T09:18:09.012Z,12.20
2019-02-18T09:19:08.985Z,12.20
2019-02-18T09:20:09.042Z,12.20
2019-02-18T09:21:09.038Z,12.20
2019-02-18T09:22:09.114Z,12.20
2019-02-18T09:23:08.998Z,12.20
2019-02-18T09:24:09.091Z,12.20
2019-02-18T09:25:09.114Z,12.20
2019-02-18T09:26:09.090Z,11.20
2019-02-18T09:27:09.120Z,11.20
2019-02-18T09:28:09.082Z,11.20
2019-02-18T09:29:09.050Z,11.20
2019-02-18T09:30:09.052Z,11.20
2019-02-18T09:31:09.056Z,11.20
2019-02-18T09:32:09.068Z,11.20
2019-02-18T09:33:09.054Z,11.20
2019-02-18T09:34:09.129Z,11.20
2019-02-18T09:35:09.083Z,11.20
2019-02-18T09:36:09.112Z,11.30
2019-02-18T09:37:08.993Z,11.30
2019-02-18T09:38:09.048Z,11.30
2019-02-18T09:39:09.062Z,11.30
2019-02-18T09:40:09.080Z,11.30
2019-02-18T09:41:09.051Z,11.30
2019-02-18T09:42:09.045Z,11.30
2019-02-18T09:43:09.013Z,11.30
2019-02-18T09:44:09.120Z,11.30
2019-02-18T09:45:09.122Z,11.30
2019-02-18T09:46:09.136Z,10.90
2019-02-18T09:47:09.138Z,10.90
2019-02-18T09:48:09.131Z,10.90
2019-02-18T09:49:09.155Z,10.90
2019-02-18T09:50:09.133Z,10.90
2019-02-18T09:51:09.074Z,10.90
2019-02-18T09:52:09.144Z,10.90
2019-02-18T09:53:09.072Z,10.90
2019-02-18T09:54:09.142Z,10.90
2019-02-18T09:55:09.087Z,10.90
2019-02-18T09:56:09.148Z,10.40
2019-02-18T09:57:09.099Z,10.40
2019-02-18T09:58:09.082Z,10.40
2019-02-18T09:59:09.072Z,10.40
2019-02-18T10:00:09.089Z,10.40
2019-02-18T10:01:09.211Z,10.40
2019-02-18T10:02:09.046Z,10.40
2019-02-18T10:03:09.152Z,10.40
2019-02-18T10:04:09.149Z,10.40
2019-02-18T10:05:09.165Z,10.40
2019-02-18T10:06:09.009Z,11.00
2019-02-18T10:07:09.070Z,11.00
2019-02-18T10:08:09.102Z,11.00
2019-02-18T10:09:08.974Z,11.00
2019-02-18T10:10:09.105Z,11.00
2019-02-18T10:11:09.012Z,11.00
2019-02-18T10:12:18.010Z,11.00
2019-02-18T10:13:09.100Z,11.00
2019-02-18T10:14:09.012Z,11.00
2019-02-18T10:15:09.012Z,11.00
2019-02-18T10:16:09.126Z,13.00
2019-02-18T10:17:09.122Z,13.00
2019-02-18T10:18:09.038Z,13.00
2019-02-18T10:19:08.999Z,13.00
2019-02-18T10:20:09.122Z,13.00
2019-02-18T10:21:09.021Z,13.00
2019-02-18T10:22:09.079Z,13.00
2019-02-18T10:23:09.072Z,13.00
2019-02-18T10:24:09.078Z,13.00
2019-02-18T10:25:09.114Z,13.00
2019-02-18T10:26:09.081Z,11.80
2019-02-18T10:27:09.150Z,11.80
2019-02-18T10:28:09.152Z,11.80
2019-02-18T10:29:09.085Z,11.80
2019-02-18T10:30:09.083Z,11.80
2019-02-18T10:31:09.154Z,11.80
2019-02-18T10:32:09.082Z,11.80
2019-02-18T10:33:09.374Z,11.80
2019-02-18T10:34:09.166Z,11.80
2019-02-18T10:35:09.092Z,11.80
2019-02-18T10:36:09.141Z,13.50
2019-02-18T10:37:09.085Z,13.50
2019-02-18T10:38:09.066Z,13.50
2019-02-18T10:39:09.184Z,13.50
2019-02-18T10:40:09.092Z,13.50
2019-02-18T10:41:09.106Z,13.50
2019-02-18T10:42:09.162Z,13.50
2019-02-18T10:43:09.135Z,13.50
2019-02-18T10:44:09.031Z,13.50
2019-02-18T10:45:09.116Z,13.50
2019-02-18T10:46:09.106Z,13.50
2019-02-18T10:47:09.187Z,11.70
2019-02-18T10:48:09.215Z,11.70
2019-02-18T10:49:19.280Z,11.70
2019-02-18T10:50:09.106Z,11.70
2019-02-18T10:51:09.109Z,11.70
2019-02-18T10:52:09.128Z,11.70
2019-02-18T10:53:09.186Z,11.70
2019-02-18T10:54:09.119Z,11.70
2019-02-18T10:55:09.182Z,11.70
2019-02-18T10:56:09.177Z,11.70
2019-02-18T10:57:09.100Z,12.60
2019-02-18T10:58:09.177Z,12.60
2019-02-18T10:59:09.174Z,12.60
2019-02-18T11:00:09.134Z,12.60
2019-02-18T11:01:09.181Z,12.60
2019-02-18T11:02:09.107Z,12.60
2019-02-18T11:03:09.107Z,12.60
2019-02-18T11:04:09.179Z,12.60
2019-02-18T11:05:09.107Z,12.60
2019-02-18T11:06:09.439Z,12.60
2019-02-18T11:07:09.238Z,15.99
2019-02-18T11:08:09.090Z,15.99
2019-02-18T11:09:09.189Z,15.99
2019-02-18T11:10:09.114Z,15.99
2019-02-18T11:11:16.639Z,15.99
2019-02-18T11:12:09.115Z,15.99
2019-02-18T11:13:09.191Z,15.99
2019-02-18T11:14:09.121Z,15.99
2019-02-18T11:15:09.138Z,15.99
2019-02-18T11:16:09.111Z,15.99
2019-02-18T11:17:09.189Z,14.10
2019-02-18T11:18:09.127Z,14.10
2019-02-18T11:19:09.189Z,14.10
2019-02-18T11:20:09.237Z,14.10
2019-02-18T11:21:09.124Z,14.10
2019-02-18T11:22:09.197Z,14.10
2019-02-18T11:23:09.126Z,14.10
2019-02-18T11:24:09.192Z,14.10
2019-02-18T11:25:09.121Z,14.10
2019-02-18T11:26:09.193Z,14.10
2019-02-18T11:27:09.240Z,15.50
2019-02-18T11:28:09.206Z,15.50
2019-02-18T11:29:09.207Z,15.50
2019-02-18T11:30:09.136Z,15.50
2019-02-18T11:31:09.139Z,15.50
2019-02-18T11:32:09.152Z,15.50
2019-02-18T11:33:09.141Z,15.50
2019-02-18T11:34:09.148Z,15.50
2019-02-18T11:35:09.209Z,15.50
2019-02-18T11:36:09.211Z,15.50
2019-02-18T11:37:09.199Z,13.50
2019-02-18T11:38:09.131Z,13.50
2019-02-18T11:39:09.201Z,13.50
2019-02-18T11:40:09.144Z,13.50
2019-02-18T11:41:09.262Z,13.50
2019-02-18T11:42:09.204Z,13.50
2019-02-18T11:43:09.207Z,13.50
2019-02-18T11:44:09.131Z,13.50
2019-02-18T11:45:09.214Z,13.50
2019-02-18T11:46:09.142Z,13.50
2019-02-18T11:47:09.136Z,14.10
2019-02-18T11:48:09.138Z,14.10
2019-02-18T11:49:09.138Z,14.10
2019-02-18T11:50:09.215Z,14.10
2019-02-18T11:51:09.091Z,14.10
2019-02-18T11:52:09.137Z,14.10
2019-02-18T11:53:09.160Z,14.10
2019-02-18T11:54:09.145Z,14.10
2019-02-18T11:55:09.219Z,14.10
2019-02-18T11:56:09.143Z,14.10
2019-02-18T11:57:09.216Z,13.90
2019-02-18T11:58:09.220Z,13.90
2019-02-18T11:59:09.150Z,13.90
2019-02-18T12:00:09.218Z,13.90
2019-02-18T12:01:09.151Z,13.90
2019-02-18T12:02:09.220Z,13.90
2019-02-18T12:03:12.453Z,13.90
2019-02-18T12:04:09.154Z,13.90
2019-02-18T12:05:09.220Z,13.90
2019-02-18T12:06:09.151Z,13.90
2019-02-18T12:07:09.232Z,14.40
2019-02-18T12:08:09.189Z,14.40
2019-02-18T12:09:09.168Z,14.40
2019-02-18T12:10:09.163Z,14.40
2019-02-18T12:11:09.183Z,14.40
2019-02-18T12:12:09.162Z,14.40
2019-02-18T12:13:09.243Z,14.40
2019-02-18T12:14:09.177Z,14.40
2019-02-18T12:15:09.242Z,14.40
2019-02-18T12:16:09.211Z,14.40
2019-02-18T12:17:09.167Z,14.40
2019-02-18T12:18:09.246Z,14.40
2019-02-18T12:19:09.241Z,14.40
2019-02-18T12:20:09.172Z,14.40
2019-02-18T12:21:09.261Z,14.40
2019-02-18T12:22:09.242Z,14.40
2019-02-18T12:23:09.261Z,14.40
2019-02-18T12:24:09.172Z,14.40
2019-02-18T12:25:09.245Z,14.40
2019-02-18T12:26:09.240Z,14.40
2019-02-18T12:27:09.232Z,15.20
2019-02-18T12:28:09.177Z,15.20
2019-02-18T12:29:09.266Z,15.20
2019-02-18T12:30:09.144Z,15.20
2019-02-18T12:31:09.265Z,15.20
2019-02-18T12:32:09.251Z,15.20
2019-02-18T12:33:09.362Z,15.20
2019-02-18T12:34:09.222Z,15.20
2019-02-18T12:35:09.252Z,15.20
2019-02-18T12:36:09.254Z,15.20
2019-02-18T12:37:09.173Z,13.10
2019-02-18T12:38:09.246Z,13.10
2019-02-18T12:39:09.186Z,13.10
2019-02-18T12:40:09.243Z,13.10
2019-02-18T12:41:09.223Z,13.10
2019-02-18T12:42:09.189Z,13.10
2019-02-18T12:43:09.178Z,13.10
2019-02-18T12:44:09.171Z,13.10
2019-02-18T12:45:09.179Z,13.10
2019-02-18T12:46:15.829Z,13.10
2019-02-18T12:47:09.256Z,10.99
2019-02-18T12:48:09.175Z,10.99
2019-02-18T12:49:09.251Z,10.99
2019-02-18T12:50:09.181Z,10.99
2019-02-18T12:51:09.251Z,10.99
2019-02-18T12:52:09.185Z,10.99
2019-02-18T12:53:09.257Z,10.99
2019-02-18T12:54:09.175Z,10.99
2019-02-18T12:55:09.335Z,10.99
2019-02-18T12:56:09.180Z,10.99
2019-02-18T12:57:09.259Z,11.70
2019-02-18T12:58:09.264Z,11.70
2019-02-18T12:59:09.265Z,11.70
2019-02-18T13:00:09.360Z,11.70
2019-02-18T13:01:09.260Z,11.70
2019-02-18T13:02:09.191Z,11.70
2019-02-18T13:03:09.261Z,11.70
2019-02-18T13:04:09.266Z,11.70
2019-02-18T13:05:09.200Z,11.70
2019-02-18T13:06:09.267Z,11.70
2019-02-18T13:07:09.265Z,10.00
2019-02-18T13:08:09.426Z,10.00
2019-02-18T13:09:09.178Z,10.00
2019-02-18T13:10:09.268Z,10.00
2019-02-18T13:11:09.251Z,10.00